Terminal Aerodrome Forecast
Issued by NWS

Home | Current Version | Previous Version | Text Only | Print | Product List | Glossary On
Versions: 1 2 3 4 5 6 7 8 9 10 11 12 13 14 15 16 17 18 19 20
000
FTUS43 KGRR 142300
TAFMKG
TAF
KMKG 142326Z 1500/1524 21009KT P6SM FEW150
     FM150200 20005KT P6SM SCT250
     FM151000 18005KT P6SM OVC060
     FM151400 23005KT 4SM -RA BR OVC040
     FM151800 26008KT 2SM RA BR OVC015
     FM152100 35007KT 5SM -RA BR OVC008=

USA.gov is the U.S. government's official web portal to all federal, state and local government web resources and services.